Time;durP1;ratioP1;P1;durP2;ratioP2;P2;SDS_P1;SDS_P2;PMS_P1;PMS_P2;Temp;Humidity;BMP_temperature;BMP_pressure;BME280_temperature;BME280_humidity;BME280_pressure;Samples;Min_cycle;Max_cycle;Signal;HPM_P1;HPM_P2
2022/06/20 00:02:02;;;;;;;;;;;;;;;18.32;66.09;99211.42;1797016;80;21138;-72
2022/06/20 00:04:31;;;;;;;;;;;;;;;18.31;66.02;99212.59;1797676;79;20134;-71
2022/06/20 00:07:02;;;;;;;;;;;;;;;18.29;66.06;99211.38;1797682;80;20163;-71
2022/06/20 00:09:28;;;;;;;;;;;;;;;18.27;66.02;99213.13;1797420;80;20546;-72
2022/06/20 00:11:54;;;;;;;;;;;;;;;18.26;66.02;99205.97;1797626;80;20106;-71
2022/06/20 00:14:22;;;;;;;;;;;;;;;18.25;66.05;99209.93;1797705;79;20138;-71
2022/06/20 00:16:50;;;;;;;;;;;;;;;18.23;66.09;99214.26;1797520;79;20126;-72
2022/06/20 00:19:17;;;;;;;;;;;;;;;18.20;66.16;99210.25;1797680;80;20138;-72
2022/06/20 00:21:46;;;;;;;;;;;;;;;18.17;66.29;99211.00;1797258;80;20226;-71
2022/06/20 00:24:12;;;;;;;;;;;;;;;18.13;66.42;99210.95;1797687;80;20509;-71
2022/06/20 00:26:39;;;;;;;;;;;;;;;18.10;66.54;99209.50;1797683;79;21541;-71
2022/06/20 00:29:07;;;;;;;;;;;;;;;18.05;66.73;99204.27;1797624;79;20134;-71
2022/06/20 00:31:38;;;;;;;;;;;;;;;18.02;66.86;99205.02;1797860;79;20099;-71
2022/06/20 00:34:02;;;;;;;;;;;;;;;17.97;66.98;99208.91;1796519;80;20134;-72
2022/06/20 00:36:31;;;;;;;;;;;;;;;17.94;67.16;99210.24;1796908;80;20134;-71
2022/06/20 00:39:01;;;;;;;;;;;;;;;17.90;67.27;99210.80;1797627;79;21168;-71
2022/06/20 00:41:28;;;;;;;;;;;;;;;17.84;67.40;99208.92;1797135;79;20155;-71
2022/06/20 00:43:55;;;;;;;;;;;;;;;17.80;67.57;99206.68;1797652;78;20118;-72
2022/06/20 00:46:45;;;;;;;;;;;;;;;17.75;67.72;99205.02;1797635;79;20563;-72
2022/06/20 00:49:21;;;;;;;;;;;;;;;17.71;67.81;99204.75;1797696;80;20123;-72
2022/06/20 00:52:07;;;;;;;;;;;;;;;17.67;67.88;99205.27;1763388;80;20552;-71
2022/06/20 00:54:47;;;;;;;;;;;;;;;17.65;68.12;99211.75;1797556;80;20164;-72
2022/06/20 00:57:17;;;;;;;;;;;;;;;17.59;68.12;99206.29;1796829;80;20118;-71
2022/06/20 00:59:46;;;;;;;;;;;;;;;17.56;68.21;99205.64;1797619;78;20118;-72
2022/06/20 01:02:13;;;;;;;;;;;;;;;17.53;68.26;99209.16;1797952;80;20106;-71
2022/06/20 01:04:46;;;;;;;;;;;;;;;17.52;68.25;99208.94;1797724;79;21746;-71
2022/06/20 01:07:15;;;;;;;;;;;;;;;17.48;68.32;99213.84;1797592;79;20106;-71
2022/06/20 01:09:44;;;;;;;;;;;;;;;17.47;68.36;99216.40;1798100;79;20095;-71
2022/06/20 01:12:13;;;;;;;;;;;;;;;17.44;68.31;99210.20;1797667;80;20149;-71
2022/06/20 01:14:41;;;;;;;;;;;;;;;17.42;68.36;99206.19;1797678;80;20118;-71
2022/06/20 01:17:26;;;;;;;;;;;;;;;17.38;68.45;99208.91;1797561;80;21739;-71
2022/06/20 01:19:56;;;;;;;;;;;;;;;17.35;68.51;99204.67;1789267;79;20266;-72
2022/06/20 01:22:32;;;;;;;;;;;;;;;17.32;68.50;99204.06;1789591;80;20115;-72
2022/06/20 01:25:14;;;;;;;;;;;;;;;17.29;68.53;99202.02;1788399;80;20132;-72
2022/06/20 01:27:43;;;;;;;;;;;;;;;17.28;68.63;99203.19;1789144;80;36034;-72
2022/06/20 01:30:10;;;;;;;;;;;;;;;17.27;68.72;99206.55;1789232;80;21214;-72
2022/06/20 01:32:37;;;;;;;;;;;;;;;17.24;68.75;99198.16;1789241;80;20131;-72
2022/06/20 01:35:06;;;;;;;;;;;;;;;17.22;68.90;99200.50;1789214;80;20139;-72
2022/06/20 01:37:35;;;;;;;;;;;;;;;17.19;69.01;99195.69;1789211;80;20552;-71
2022/06/20 01:40:08;;;;;;;;;;;;;;;17.15;69.22;99199.20;1767400;81;20098;-71
2022/06/20 01:42:37;;;;;;;;;;;;;;;17.12;69.29;99197.75;1788014;80;21669;-71
2022/06/20 01:48:02;;;;;;;;;;;;;;;17.08;69.35;99191.33;1789379;80;20139;-71
2022/06/20 01:50:31;;;;;;;;;;;;;;;17.05;69.38;99190.67;1781214;80;20122;-72
2022/06/20 01:53:00;;;;;;;;;;;;;;;17.02;69.42;99190.02;1789232;80;20107;-71
2022/06/20 01:55:26;;;;;;;;;;;;;;;17.00;69.49;99193.75;1763061;80;20706;-71
2022/06/20 01:57:55;;;;;;;;;;;;;;;16.98;69.48;99184.41;1789199;80;20110;-71
2022/06/20 02:00:23;;;;;;;;;;;;;;;16.96;69.44;99191.48;1788537;80;20179;-72
2022/06/20 02:02:54;;;;;;;;;;;;;;;16.93;69.49;99186.09;1789231;79;20482;-71
2022/06/20 02:05:23;;;;;;;;;;;;;;;16.90;69.56;99182.67;1789151;79;20214;-72
2022/06/20 02:07:52;;;;;;;;;;;;;;;16.88;69.43;99186.97;1789235;80;21798;-71
2022/06/20 02:10:26;;;;;;;;;;;;;;;16.87;69.45;99190.33;1788432;80;20539;-70
2022/06/20 02:13:02;;;;;;;;;;;;;;;16.88;69.39;99189.74;1788666;80;20107;-70
2022/06/20 02:15:25;;;;;;;;;;;;;;;16.89;69.70;99188.58;1787287;80;20166;-71
2022/06/20 02:17:52;;;;;;;;;;;;;;;16.93;69.55;99187.48;1788829;80;20115;-71
2022/06/20 02:20:24;;;;;;;;;;;;;;;16.98;69.18;99184.41;1789811;80;20537;-70
2022/06/20 02:22:53;;;;;;;;;;;;;;;17.00;69.36;99182.07;1769747;81;20120;-71
2022/06/20 02:25:24;;;;;;;;;;;;;;;17.03;69.59;99181.92;1769794;81;20590;-71
2022/06/20 02:27:57;;;;;;;;;;;;;;;17.08;69.82;99176.88;1789747;80;20477;-71
2022/06/20 02:30:25;;;;;;;;;;;;;;;17.11;69.72;99178.11;1762125;80;20111;-71
2022/06/20 02:32:56;;;;;;;;;;;;;;;17.15;69.17;99182.56;1789531;80;20581;-69
2022/06/20 02:35:27;;;;;;;;;;;;;;;17.15;68.52;99182.56;1789674;79;20110;-70
2022/06/20 02:37:51;;;;;;;;;;;;;;;17.12;68.86;99186.06;1789547;80;20099;-70
2022/06/20 02:40:19;;;;;;;;;;;;;;;17.13;68.64;99189.06;1789820;80;20494;-70
2022/06/20 02:43:05;;;;;;;;;;;;;;;17.13;68.11;99184.90;1789755;80;20118;-70
2022/06/20 02:45:32;;;;;;;;;;;;;;;17.11;68.32;99187.23;1789789;79;21530;-69
2022/06/20 02:48:04;;;;;;;;;;;;;;;17.11;68.39;99188.62;1789080;79;20099;-71
2022/06/20 02:50:38;;;;;;;;;;;;;;;17.13;68.11;99195.19;1788640;80;20106;-71
2022/06/20 02:53:11;;;;;;;;;;;;;;;17.14;68.02;99196.20;1764889;80;20122;-71
2022/06/20 02:55:36;;;;;;;;;;;;;;;17.15;67.87;99195.63;1742618;81;20438;-71
2022/06/20 02:58:05;;;;;;;;;;;;;;;17.16;67.85;99204.96;1789982;80;21063;-70
2022/06/20 03:00:45;;;;;;;;;;;;;;;17.18;68.13;99207.95;1788838;80;20136;-71
2022/06/20 03:03:15;;;;;;;;;;;;;;;17.18;68.40;99211.53;1764648;80;20095;-70
2022/06/20 03:05:43;;;;;;;;;;;;;;;17.16;69.76;99213.28;1789566;80;20118;-70
2022/06/20 03:08:12;;;;;;;;;;;;;;;17.14;70.58;99213.44;1789828;80;20107;-70
2022/06/20 03:10:42;;;;;;;;;;;;;;;17.10;70.87;99221.69;1789748;79;20158;-71
2022/06/20 03:13:12;;;;;;;;;;;;;;;17.10;72.10;99223.07;1789691;80;20203;-71
2022/06/20 03:15:47;;;;;;;;;;;;;;;17.10;73.26;99213.95;1741782;81;20145;-71
2022/06/20 03:18:15;;;;;;;;;;;;;;;17.10;73.67;99215.34;1763886;80;20134;-71
2022/06/20 03:20:41;;;;;;;;;;;;;;;17.12;72.09;99212.41;1790021;80;20174;-70
2022/06/20 03:23:12;;;;;;;;;;;;;;;17.19;72.82;99209.56;1765302;80;20107;-72
2022/06/20 03:25:41;;;;;;;;;;;;;;;17.25;72.43;99214.44;1789102;79;20138;-73
2022/06/20 03:28:13;;;;;;;;;;;;;;;17.32;71.35;99220.70;1746072;81;20089;-72
2022/06/20 03:30:41;;;;;;;;;;;;;;;17.41;70.69;99218.47;1734924;81;20135;-71
2022/06/20 03:33:11;;;;;;;;;;;;;;;17.50;69.76;99213.47;1765500;80;20110;-73
2022/06/20 03:35:37;;;;;;;;;;;;;;;17.60;69.55;99214.25;1789677;80;21152;-72
2022/06/20 03:38:05;;;;;;;;;;;;;;;17.70;69.04;99215.63;1789787;80;20110;-72
2022/06/20 03:40:35;;;;;;;;;;;;;;;17.78;68.53;99220.12;1790209;79;20187;-72
2022/06/20 03:43:01;;;;;;;;;;;;;;;17.87;68.83;99222.66;1789433;79;20150;-73
2022/06/20 03:45:32;;;;;;;;;;;;;;;17.97;68.14;99226.16;1789887;80;20177;-73
2022/06/20 03:48:06;;;;;;;;;;;;;;;18.04;67.81;99222.11;1790182;80;21011;-72
2022/06/20 03:50:35;;;;;;;;;;;;;;;18.10;66.91;99217.84;1770130;81;20595;-70
2022/06/20 03:53:11;;;;;;;;;;;;;;;18.15;66.60;99223.07;1776205;80;20077;-73
2022/06/20 03:55:53;;;;;;;;;;;;;;;18.19;66.17;99218.38;1754692;81;20105;-75
2022/06/20 03:58:27;;;;;;;;;;;;;;;18.25;66.07;99214.09;1758115;81;20108;-74
2022/06/20 04:00:57;;;;;;;;;;;;;;;18.30;66.04;99217.14;1758603;81;21114;-74
2022/06/20 04:03:30;;;;;;;;;;;;;;;18.33;65.79;99215.80;1786409;80;20111;-74
2022/06/20 04:06:03;;;;;;;;;;;;;;;18.39;65.56;99214.89;1789432;80;20525;-73
2022/06/20 04:11:36;;;;;;;;;;;;;;;18.54;65.50;99210.30;1789729;80;20466;-76
2022/06/20 04:14:06;;;;;;;;;;;;;;;18.63;65.84;99209.45;1789313;80;21201;-80
2022/06/20 04:16:41;;;;;;;;;;;;;;;18.71;65.56;99206.39;1788798;80;20119;-77
2022/06/20 04:19:19;;;;;;;;;;;;;;;18.80;65.78;99201.34;1757596;80;20107;-75
2022/06/20 04:21:58;;;;;;;;;;;;;;;18.90;65.04;99198.48;1782212;80;20135;-76
2022/06/20 04:24:28;;;;;;;;;;;;;;;18.96;64.84;99192.79;1785845;80;20122;-72
2022/06/20 04:27:13;;;;;;;;;;;;;;;19.06;64.47;99182.97;1785639;80;21761;-71
2022/06/20 04:29:44;;;;;;;;;;;;;;;19.12;64.45;99182.20;1786207;80;20143;-71
2022/06/20 04:32:30;;;;;;;;;;;;;;;19.22;63.88;99180.72;1785695;80;20504;-73
2022/06/20 04:35:01;;;;;;;;;;;;;;;19.29;63.57;99179.99;1786484;80;20331;-71
2022/06/20 04:37:37;;;;;;;;;;;;;;;19.37;63.50;99177.48;1784064;79;20081;-72
2022/06/20 04:40:11;;;;;;;;;;;;;;;19.46;62.91;99173.80;1781105;80;21921;-72
2022/06/20 04:42:53;;;;;;;;;;;;;;;19.53;62.14;99176.67;1779661;80;20128;-72
2022/06/20 04:45:29;;;;;;;;;;;;;;;19.61;61.88;99172.77;1780329;80;20085;-72
2022/06/20 04:48:13;;;;;;;;;;;;;;;19.70;61.03;99164.86;1779040;80;20088;-72
2022/06/20 04:50:44;;;;;;;;;;;;;;;19.76;60.77;99150.78;1780370;80;20180;-72
2022/06/20 04:53:20;;;;;;;;;;;;;;;19.86;60.34;99153.44;1779280;79;21160;-75
2022/06/20 04:55:55;;;;;;;;;;;;;;;19.96;59.98;99154.11;1780696;79;20093;-74
2022/06/20 04:58:25;;;;;;;;;;;;;;;20.06;59.42;99149.80;1780476;80;20080;-75
2022/06/20 05:00:54;;;;;;;;;;;;;;;20.18;59.02;99150.87;1782295;80;20119;-76
2022/06/20 05:03:28;;;;;;;;;;;;;;;20.31;58.92;99138.77;1786176;80;20139;-76
2022/06/20 05:05:56;;;;;;;;;;;;;;;20.44;58.35;99141.45;1784467;80;21159;-76
2022/06/20 05:08:30;;;;;;;;;;;;;;;20.55;57.51;99136.72;1789840;80;20446;-74
2022/06/20 05:11:00;;;;;;;;;;;;;;;20.69;57.70;99140.16;1751757;80;20133;-76
2022/06/20 05:13:46;;;;;;;;;;;;;;;20.82;57.73;99143.36;1752393;81;20501;-75
2022/06/20 05:16:19;;;;;;;;;;;;;;;20.95;56.84;99136.22;1759244;81;20160;-71
2022/06/20 05:18:49;;;;;;;;;;;;;;;21.07;55.29;99129.67;1758983;80;21134;-74
2022/06/20 05:21:22;;;;;;;;;;;;;;;21.16;55.23;99136.27;1759813;81;20575;-74
2022/06/20 05:23:51;;;;;;;;;;;;;;;21.26;55.08;99125.75;1757123;81;20121;-74
2022/06/20 05:26:21;;;;;;;;;;;;;;;21.41;55.67;99132.11;1760286;81;20109;-72
2022/06/20 05:28:50;;;;;;;;;;;;;;;21.54;54.47;99120.75;1759723;81;20456;-72
2022/06/20 05:31:20;;;;;;;;;;;;;;;21.68;53.86;99125.53;1759936;81;21143;-72
2022/06/20 05:33:57;;;;;;;;;;;;;;;21.80;54.74;99127.12;1757221;81;20149;-72
2022/06/20 05:36:39;;;;;;;;;;;;;;;21.93;54.08;99133.89;1759966;81;20117;-72
2022/06/20 05:39:09;;;;;;;;;;;;;;;22.08;53.42;99128.47;1709640;83;20110;-73
2022/06/20 05:41:39;;;;;;;;;;;;;;;22.21;52.65;99124.05;1726658;81;20145;-73
2022/06/20 05:44:14;;;;;;;;;;;;;;;22.34;51.91;99117.42;1759887;81;21872;-73
2022/06/20 05:46:48;;;;;;;;;;;;;;;22.46;51.01;99122.56;1731264;81;20193;-73
2022/06/20 05:49:32;;;;;;;;;;;;;;;22.56;50.13;99125.89;1759952;81;20109;-75
2022/06/20 05:52:01;;;;;;;;;;;;;;;22.67;50.14;99130.04;1760038;81;20137;-71
2022/06/20 05:54:30;;;;;;;;;;;;;;;22.79;50.21;99126.81;1759835;81;20097;-73
2022/06/20 05:57:09;;;;;;;;;;;;;;;22.90;49.28;99121.16;1760093;81;21192;-73
2022/06/20 05:59:45;;;;;;;;;;;;;;;23.04;49.50;99121.08;1759924;81;20125;-73
2022/06/20 06:02:24;;;;;;;;;;;;;;;23.18;47.63;99116.75;1760336;81;20109;-71
2022/06/20 06:05:13;;;;;;;;;;;;;;;23.30;48.09;99106.47;1730127;81;20180;-72
2022/06/20 06:07:46;;;;;;;;;;;;;;;23.45;47.78;99103.55;1743469;81;20464;-73
2022/06/20 06:10:32;;;;;;;;;;;;;;;23.62;46.97;99102.03;1759902;81;22142;-72
2022/06/20 06:13:14;;;;;;;;;;;;;;;23.77;46.26;99099.08;1759222;81;20098;-74
2022/06/20 06:18:23;;;;;;;;;;;;;;;24.10;46.56;99095.52;1730590;81;20298;-71
2022/06/20 06:20:49;;;;;;;;;;;;;;;24.28;44.72;99084.91;1758783;80;20499;-73
2022/06/20 06:23:16;;;;;;;;;;;;;;;24.39;43.84;99079.16;1758089;81;21116;-76
2022/06/20 06:25:44;;;;;;;;;;;;;;;24.44;42.51;99077.30;1757787;81;20176;-73
2022/06/20 06:28:14;;;;;;;;;;;;;;;24.48;42.35;99061.21;1757948;81;20228;-74
2022/06/20 06:30:47;;;;;;;;;;;;;;;24.56;43.00;99050.69;1757603;81;20201;-74
2022/06/20 06:33:37;;;;;;;;;;;;;;;24.65;42.00;99041.94;1758015;80;20197;-70
2022/06/20 06:36:15;;;;;;;;;;;;;;;24.76;42.85;99032.57;1732661;81;20572;-73
2022/06/20 06:38:49;;;;;;;;;;;;;;;24.86;41.94;99029.58;1757173;81;20527;-71
2022/06/20 06:41:25;;;;;;;;;;;;;;;24.95;42.32;99027.03;1757493;81;20511;-75
2022/06/20 06:43:54;;;;;;;;;;;;;;;25.04;41.66;99029.94;1757581;81;20109;-71
2022/06/20 06:46:27;;;;;;;;;;;;;;;25.14;41.42;99033.19;1756626;81;20442;-73
2022/06/20 06:49:17;;;;;;;;;;;;;;;25.21;40.15;99027.45;1775795;79;21109;-71
2022/06/20 06:51:49;;;;;;;;;;;;;;;25.25;41.45;99020.56;1767879;81;20102;-74
2022/06/20 06:54:21;;;;;;;;;;;;;;;25.37;39.28;99010.73;1760070;81;20081;-71
2022/06/20 06:56:54;;;;;;;;;;;;;;;25.47;39.41;99006.11;1737584;82;20114;-72
2022/06/20 06:59:32;;;;;;;;;;;;;;;25.59;39.62;99022.35;1763259;81;20445;-70
2022/06/20 07:02:00;;;;;;;;;;;;;;;25.73;39.09;99019.31;1763111;81;21788;-71
2022/06/20 07:04:30;;;;;;;;;;;;;;;25.83;38.94;99014.70;1764686;80;20107;-74
2022/06/20 07:06:59;;;;;;;;;;;;;;;25.94;39.45;99008.27;1762349;81;20094;-74
2022/06/20 07:09:32;;;;;;;;;;;;;;;26.04;38.37;99005.02;1734450;81;20082;-73
2022/06/20 07:12:18;;;;;;;;;;;;;;;26.12;38.80;99003.66;1762466;81;20082;-73
2022/06/20 07:14:53;;;;;;;;;;;;;;;26.24;38.34;99010.82;1762099;80;21080;-72
2022/06/20 07:17:28;;;;;;;;;;;;;;;26.42;38.29;99002.03;1762223;81;20079;-74
2022/06/20 07:20:00;;;;;;;;;;;;;;;26.54;38.31;99006.98;1761039;81;20143;-73
2022/06/20 07:22:26;;;;;;;;;;;;;;;26.67;37.05;99011.30;1771514;81;20166;-75
2022/06/20 07:24:53;;;;;;;;;;;;;;;26.74;36.30;99006.11;1774507;81;20094;-74
2022/06/20 07:27:32;;;;;;;;;;;;;;;26.77;37.27;98998.99;1774563;81;21619;-70
2022/06/20 07:30:13;;;;;;;;;;;;;;;26.82;36.09;98982.98;1744382;81;20086;-70
2022/06/20 07:32:49;;;;;;;;;;;;;;;26.83;35.85;98998.65;1744540;81;20432;-73
2022/06/20 07:35:23;;;;;;;;;;;;;;;26.89;35.84;98991.27;1774110;81;20166;-73
2022/06/20 07:38:09;;;;;;;;;;;;;;;26.97;36.09;98996.14;1774301;81;20117;-74
2022/06/20 07:40:52;;;;;;;;;;;;;;;27.03;35.89;99003.45;1774367;81;21538;-72
2022/06/20 07:43:22;;;;;;;;;;;;;;;27.09;35.96;98998.87;1774865;81;20081;-69
2022/06/20 07:45:49;;;;;;;;;;;;;;;27.18;35.29;98994.79;1744257;81;20416;-70
2022/06/20 07:48:31;;;;;;;;;;;;;;;27.18;34.08;98990.56;1774753;81;20150;-74
2022/06/20 07:51:04;;;;;;;;;;;;;;;27.17;34.99;98998.22;1774620;81;20437;-73
2022/06/20 07:53:49;;;;;;;;;;;;;;;27.23;34.68;99008.34;1774535;81;21659;-69
2022/06/20 07:56:37;;;;;;;;;;;;;;;27.33;34.52;99009.31;1774544;81;20093;-69
2022/06/20 07:59:16;;;;;;;;;;;;;;;27.42;33.73;99001.81;1774748;81;20429;-71
2022/06/20 08:01:59;;;;;;;;;;;;;;;27.50;32.87;99005.23;1774553;81;20449;-70
2022/06/20 08:04:31;;;;;;;;;;;;;;;27.54;33.29;99016.59;1744294;81;20081;-74
2022/06/20 08:07:13;;;;;;;;;;;;;;;27.58;33.13;99009.45;1774495;81;22236;-70
2022/06/20 08:09:55;;;;;;;;;;;;;;;27.64;34.09;99008.33;1774499;81;20481;-69
2022/06/20 08:12:43;;;;;;;;;;;;;;;27.74;32.41;99005.19;1774668;81;20118;-69
2022/06/20 08:15:24;;;;;;;;;;;;;;;27.81;32.19;99008.43;1754788;81;20433;-69
2022/06/20 08:17:53;;;;;;;;;;;;;;;27.89;33.13;99001.36;1774792;81;20081;-70
2022/06/20 08:20:20;;;;;;;;;;;;;;;28.02;32.75;98996.55;1774611;81;21138;-70
2022/06/20 08:22:59;;;;;;;;;;;;;;;28.20;32.15;99002.47;1769466;81;20105;-70
2022/06/20 08:25:29;;;;;;;;;;;;;;;28.37;31.21;98993.30;1736593;81;20098;-70
2022/06/20 08:28:11;;;;;;;;;;;;;;;28.54;31.55;98988.35;1769102;81;20098;-70
2022/06/20 08:30:51;;;;;;;;;;;;;;;28.72;30.86;98995.65;1736539;81;20070;-71
2022/06/20 08:33:38;;;;;;;;;;;;;;;28.96;31.39;98998.12;1768592;81;21161;-70
2022/06/20 08:36:23;;;;;;;;;;;;;;;29.21;31.15;98998.89;1768571;81;20122;-70
2022/06/20 08:39:07;;;;;;;;;;;;;;;29.49;30.04;98989.27;1768272;81;20126;-70
2022/06/20 08:41:54;;;;;;;;;;;;;;;29.68;29.91;98985.36;1768838;81;20078;-69
2022/06/20 08:44:34;;;;;;;;;;;;;;;29.85;29.67;98982.52;1768706;81;20456;-70
2022/06/20 08:47:27;;;;;;;;;;;;;;;30.06;30.08;98976.69;1768783;81;21155;-71
2022/06/20 08:49:59;;;;;;;;;;;;;;;30.23;29.71;98983.72;1736438;81;20083;-72
2022/06/20 08:52:51;;;;;;;;;;;;;;;30.48;28.73;98979.92;1768762;81;20110;-72
2022/06/20 08:55:28;;;;;;;;;;;;;;;30.50;28.27;98966.72;1768913;81;20110;-72
2022/06/20 08:58:23;;;;;;;;;;;;;;;30.54;28.92;98981.53;1768057;80;20421;-72
2022/06/20 09:01:02;;;;;;;;;;;;;;;30.60;28.48;98961.92;1768338;81;21144;-71
2022/06/20 09:03:50;;;;;;;;;;;;;;;30.69;28.06;98974.05;1768515;81;20129;-71
2022/06/20 09:06:36;;;;;;;;;;;;;;;30.70;28.63;98961.45;1768112;80;20178;-70
2022/06/20 09:09:20;;;;;;;;;;;;;;;30.77;27.88;98967.47;1768702;81;20106;-72
2022/06/20 09:12:23;;;;;;;;;;;;;;;30.77;28.59;98964.00;1767899;81;21143;-72
2022/06/20 09:15:14;;;;;;;;;;;;;;;30.91;28.42;98954.77;1767765;81;21060;-71
2022/06/20 09:17:47;;;;;;;;;;;;;;;30.96;27.55;98954.14;1768670;81;20161;-71
2022/06/20 09:20:18;;;;;;;;;;;;;;;30.96;28.31;98949.89;1768699;81;20098;-73
2022/06/20 09:22:55;;;;;;;;;;;;;;;31.16;28.76;98958.79;1772307;81;20118;-73
2022/06/20 09:25:55;;;;;;;;;;;;;;;31.30;27.77;98952.48;1772902;81;20463;-72
2022/06/20 09:28:44;;;;;;;;;;;;;;;31.29;27.13;98943.82;1685093;85;21215;-71
2022/06/20 09:31:19;;;;;;;;;;;;;;;31.30;28.15;98939.72;1660592;85;20552;-71
2022/06/20 09:33:53;;;;;;;;;;;;;;;31.42;26.91;98938.79;1736805;80;20082;-71
2022/06/20 09:36:40;;;;;;;;;;;;;;;31.45;26.50;98935.64;1777652;80;20141;-71
2022/06/20 09:39:35;;;;;;;;;;;;;;;31.44;26.78;98937.69;1769595;80;20081;-74
2022/06/20 09:42:16;;;;;;;;;;;;;;;31.52;27.12;98931.08;1777675;80;20086;-72
2022/06/20 09:44:52;;;;;;;;;;;;;;;31.67;26.44;98951.09;1777923;80;20106;-73
2022/06/20 09:47:25;;;;;;;;;;;;;;;31.72;27.38;98947.65;1777414;80;20428;-72
2022/06/20 09:50:26;;;;;;;;;;;;;;;31.81;27.32;98928.53;1777865;80;20117;-71
2022/06/20 09:53:11;;;;;;;;;;;;;;;31.91;26.32;98922.22;1777696;80;20098;-72
2022/06/20 09:55:58;;;;;;;;;;;;;;;32.04;27.29;98919.98;1777673;80;21809;-70
2022/06/20 09:58:29;;;;;;;;;;;;;;;32.20;26.86;98925.15;1777125;80;20093;-71
2022/06/20 10:01:02;;;;;;;;;;;;;;;32.37;26.09;98915.78;1775759;80;20140;-71
2022/06/20 10:03:45;;;;;;;;;;;;;;;32.51;26.28;98918.57;1709567;82;20457;-71
2022/06/20 10:06:32;;;;;;;;;;;;;;;32.63;25.76;98913.94;1742534;82;20471;-72
2022/06/20 10:09:09;;;;;;;;;;;;;;;32.68;25.97;98915.49;1736564;82;22241;-72
2022/06/20 10:11:59;;;;;;;;;;;;;;;32.69;25.69;98900.02;1736718;82;20105;-71
2022/06/20 10:14:37;;;;;;;;;;;;;;;32.69;25.12;98905.70;1743414;82;20112;-70
2022/06/20 10:17:22;;;;;;;;;;;;;;;32.63;25.31;98910.47;1743312;82;20158;-72
2022/06/20 10:20:07;;;;;;;;;;;;;;;32.58;25.94;98899.75;1742133;82;20471;-73
2022/06/20 10:22:53;;;;;;;;;;;;;;;32.67;26.50;98891.19;1760446;80;21673;-72
2022/06/20 10:25:46;;;;;;;;;;;;;;;32.77;24.83;98904.11;1784315;80;20424;-70
2022/06/20 10:28:23;;;;;;;;;;;;;;;32.73;24.82;98892.09;1785364;80;20116;-70
2022/06/20 10:30:53;;;;;;;;;;;;;;;32.72;25.05;98883.42;1785053;80;20132;-69
2022/06/20 10:33:29;;;;;;;;;;;;;;;32.65;25.73;98894.36;1785355;80;20144;-71
2022/06/20 10:36:08;;;;;;;;;;;;;;;32.76;25.14;98896.84;1722791;81;22323;-71
2022/06/20 10:38:47;;;;;;;;;;;;;;;32.92;24.83;98889.18;1761827;81;20138;-72
2022/06/20 10:41:39;;;;;;;;;;;;;;;33.10;25.53;98891.88;1763364;81;20430;-73
2022/06/20 10:44:18;;;;;;;;;;;;;;;33.19;25.52;98888.96;1826465;78;20465;-73
2022/06/20 10:46:55;;;;;;;;;;;;;;;33.21;25.11;98885.00;1825511;78;20074;-75
2022/06/20 10:50:00;;;;;;;;;;;;;;;33.25;24.29;98885.59;1826787;78;21147;-74
2022/06/20 10:52:35;;;;;;;;;;;;;;;33.23;24.81;98882.45;1826487;78;20094;-74
2022/06/20 10:55:08;;;;;;;;;;;;;;;33.20;24.90;98879.80;1826311;78;20082;-71
2022/06/20 10:57:55;;;;;;;;;;;;;;;33.21;24.41;98877.89;1825120;78;20078;-72
2022/06/20 11:00:25;;;;;;;;;;;;;;;33.28;25.39;98878.97;1826909;78;20082;-71
2022/06/20 11:03:14;;;;;;;;;;;;;;;33.34;25.24;98869.91;1826632;78;21234;-71
2022/06/20 11:05:57;;;;;;;;;;;;;;;33.34;25.22;98867.06;1826629;78;20117;-71
2022/06/20 11:08:36;;;;;;;;;;;;;;;33.41;23.95;98863.84;1826482;78;20140;-72
2022/06/20 11:11:22;;;;;;;;;;;;;;;33.21;24.82;98848.03;1826188;78;20078;-70
2022/06/20 11:13:53;;;;;;;;;;;;;;;33.14;24.91;98845.55;1826432;78;20090;-70
2022/06/20 11:16:33;;;;;;;;;;;;;;;33.19;25.41;98851.99;1826725;78;21136;-72
2022/06/20 11:19:10;;;;;;;;;;;;;;;33.33;24.77;98849.84;1826379;78;20077;-72
2022/06/20 11:21:49;;;;;;;;;;;;;;;33.42;24.69;98851.19;1826574;78;20081;-72
2022/06/20 11:24:34;;;;;;;;;;;;;;;33.48;24.64;98853.36;1826710;78;20074;-71
2022/06/20 11:27:20;;;;;;;;;;;;;;;33.38;24.31;98847.75;1826826;78;20137;-71
2022/06/20 11:29:56;;;;;;;;;;;;;;;33.32;24.77;98844.02;1826661;78;21083;-71
2022/06/20 11:32:32;;;;;;;;;;;;;;;33.36;24.42;98836.71;1826504;78;20090;-71
2022/06/20 11:35:06;;;;;;;;;;;;;;;33.29;24.86;98843.56;1799377;78;20085;-69
2022/06/20 11:37:45;;;;;;;;;;;;;;;33.39;24.99;98835.09;1826777;78;20371;-71
2022/06/20 11:40:27;;;;;;;;;;;;;;;33.59;24.41;98832.20;1826599;78;20125;-71
2022/06/20 11:43:10;;;;;;;;;;;;;;;33.62;24.39;98832.64;1826663;78;21159;-70
2022/06/20 11:45:52;;;;;;;;;;;;;;;33.63;24.47;98819.34;1826750;78;20119;-70
2022/06/20 11:48:22;;;;;;;;;;;;;;;33.81;24.16;98817.61;1826659;78;20077;-70
2022/06/20 11:51:19;;;;;;;;;;;;;;;34.02;23.88;98809.30;1826790;78;20501;-74
2022/06/20 11:54:09;;;;;;;;;;;;;;;34.08;24.19;98819.47;1827283;78;20101;-73
2022/06/20 11:57:04;;;;;;;;;;;;;;;34.17;23.21;98817.78;1787340;78;20851;-73
2022/06/20 11:59:47;;;;;;;;;;;;;;;34.11;23.32;98799.97;1825893;78;20065;-73
2022/06/20 12:02:32;;;;;;;;;;;;;;;34.07;23.82;98808.60;1826781;78;20134;-71
2022/06/20 12:05:08;;;;;;;;;;;;;;;34.06;23.80;98807.81;1827012;78;20138;-72
2022/06/20 12:07:42;;;;;;;;;;;;;;;34.10;23.61;98814.06;1826732;78;20141;-72
2022/06/20 12:10:44;;;;;;;;;;;;;;;34.06;23.02;98801.34;1806841;78;21208;-72
2022/06/20 12:13:31;;;;;;;;;;;;;;;33.99;23.25;98799.67;1796109;78;20112;-73
2022/06/20 12:16:11;;;;;;;;;;;;;;;33.83;22.85;98791.64;1826565;78;20416;-73
2022/06/20 12:24:35;;;;;;;;;;;;;;;33.69;23.65;98779.60;1830680;78;21261;-77
2022/06/20 12:27:01;;;;;;;;;;;;;;;33.74;23.78;98776.85;1737131;81;20152;-75
2022/06/20 12:29:29;;;;;;;;;;;;;;;33.80;23.87;98781.24;1711743;81;20090;-75
2022/06/20 12:31:58;;;;;;;;;;;;;;;33.84;23.29;98771.86;1777736;80;20156;-75
2022/06/20 12:34:46;;;;;;;;;;;;;;;33.87;23.44;98771.52;1831016;78;20093;-76
2022/06/20 12:37:35;;;;;;;;;;;;;;;33.91;23.49;98767.83;1830574;78;21136;-73
2022/06/20 12:40:20;;;;;;;;;;;;;;;33.94;23.44;98774.75;1831017;78;20124;-74
2022/06/20 12:43:07;;;;;;;;;;;;;;;33.99;23.09;98759.03;1830664;78;20117;-72
2022/06/20 12:45:56;;;;;;;;;;;;;;;34.18;23.08;98763.17;1830880;78;20296;-73
2022/06/20 12:48:45;;;;;;;;;;;;;;;34.38;22.86;98762.45;1830890;78;20456;-74
2022/06/20 12:51:25;;;;;;;;;;;;;;;34.58;23.78;98753.92;1830923;78;21119;-73
2022/06/20 12:53:59;;;;;;;;;;;;;;;34.95;22.60;98760.47;1830591;78;20078;-74
2022/06/20 12:56:50;;;;;;;;;;;;;;;35.17;22.38;98761.36;1831110;78;20078;-74
2022/06/20 12:59:54;;;;;;;;;;;;;;;35.21;22.41;98751.30;1830799;78;20085;-81
2022/06/20 13:02:30;;;;;;;;;;;;;;;35.34;22.42;98736.64;1830746;78;20425;-71
2022/06/20 13:05:07;;;;;;;;;;;;;;;35.52;22.35;98740.56;1804643;78;20101;-71
2022/06/20 13:07:54;;;;;;;;;;;;;;;35.51;21.90;98730.44;1831114;78;20093;-70
2022/06/20 13:10:43;;;;;;;;;;;;;;;35.43;21.49;98731.40;1830794;78;20184;-71
2022/06/20 13:13:30;;;;;;;;;;;;;;;35.27;22.63;98731.34;1830879;78;20117;-73
2022/06/20 13:16:22;;;;;;;;;;;;;;;35.36;21.47;98718.38;1804467;78;20394;-74
2022/06/20 13:18:58;;;;;;;;;;;;;;;35.24;22.39;98714.59;1831119;78;21118;-70
2022/06/20 13:21:42;;;;;;;;;;;;;;;35.11;22.26;98711.38;1830817;78;20417;-72
2022/06/20 13:24:18;;;;;;;;;;;;;;;35.03;22.10;98708.20;1800323;78;20406;-71
2022/06/20 13:27:22;;;;;;;;;;;;;;;35.18;22.88;98707.30;1825110;78;20440;-69
2022/06/20 13:30:02;;;;;;;;;;;;;;;35.38;21.49;98692.32;1797004;78;20066;-73
2022/06/20 13:32:35;;;;;;;;;;;;;;;35.45;21.75;98698.86;1826660;78;21538;-73
2022/06/20 13:35:21;;;;;;;;;;;;;;;35.51;21.29;98700.47;1818300;78;20449;-72
2022/06/20 13:38:12;;;;;;;;;;;;;;;35.49;21.33;98693.70;1826475;78;20098;-71
2022/06/20 13:41:08;;;;;;;;;;;;;;;35.45;21.49;98698.86;1825134;78;20130;-69
2022/06/20 13:43:58;;;;;;;;;;;;;;;35.50;21.44;98685.28;1826693;78;20101;-69
2022/06/20 13:46:28;;;;;;;;;;;;;;;35.43;21.81;98680.82;1826289;78;21858;-71
2022/06/20 13:49:14;;;;;;;;;;;;;;;35.46;21.45;98676.17;1826642;78;20109;-69
2022/06/20 13:51:47;;;;;;;;;;;;;;;35.40;22.11;98678.33;1826721;78;20133;-69